sensor_id;sensor_type;location;lat;lon;timestamp;P1;durP1;ratioP1;P2;durP2;ratioP2
9698;SDS011;10089;47.876;8.346;2022-12-29T00:02:17;4.60;;;2.20;;
9698;SDS011;10089;47.876;8.346;2022-12-29T00:04:42;5.45;;;2.83;;
9698;SDS011;10089;47.876;8.346;2022-12-29T00:07:08;4.53;;;2.72;;
9698;SDS011;10089;47.876;8.346;2022-12-29T00:09:34;5.68;;;2.42;;
9698;SDS011;10089;47.876;8.346;2022-12-29T00:12:00;5.22;;;2.70;;
9698;SDS011;10089;47.876;8.346;2022-12-29T00:14:27;6.80;;;4.00;;
9698;SDS011;10089;47.876;8.346;2022-12-29T00:17:11;3.80;;;1.60;;
9698;SDS011;10089;47.876;8.346;2022-12-29T00:19:38;2.22;;;2.00;;
9698;SDS011;10089;47.876;8.346;2022-12-29T00:22:22;4.03;;;1.85;;
9698;SDS011;10089;47.876;8.346;2022-12-29T00:25:10;4.90;;;2.17;;
9698;SDS011;10089;47.876;8.346;2022-12-29T00:27:55;2.92;;;1.88;;
9698;SDS011;10089;47.876;8.346;2022-12-29T00:30:40;5.07;;;2.88;;
9698;SDS011;10089;47.876;8.346;2022-12-29T00:33:28;2.95;;;2.17;;
9698;SDS011;10089;47.876;8.346;2022-12-29T00:36:24;2.88;;;2.10;;
9698;SDS011;10089;47.876;8.346;2022-12-29T00:39:03;4.68;;;1.92;;
9698;SDS011;10089;47.876;8.346;2022-12-29T00:41:53;2.80;;;1.60;;
9698;SDS011;10089;47.876;8.346;2022-12-29T00:44:37;2.97;;;1.70;;
9698;SDS011;10089;47.876;8.346;2022-12-29T00:47:03;2.92;;;1.80;;
9698;SDS011;10089;47.876;8.346;2022-12-29T00:49:30;3.85;;;1.80;;
9698;SDS011;10089;47.876;8.346;2022-12-29T00:52:03;2.45;;;1.77;;
9698;SDS011;10089;47.876;8.346;2022-12-29T00:54:34;3.75;;;1.70;;
9698;SDS011;10089;47.876;8.346;2022-12-29T00:57:01;4.40;;;1.70;;
9698;SDS011;10089;47.876;8.346;2022-12-29T00:59:28;4.13;;;1.83;;
9698;SDS011;10089;47.876;8.346;2022-12-29T01:01:54;2.13;;;1.90;;
9698;SDS011;10089;47.876;8.346;2022-12-29T01:04:21;2.88;;;1.80;;
9698;SDS011;10089;47.876;8.346;2022-12-29T01:06:47;3.78;;;2.38;;
9698;SDS011;10089;47.876;8.346;2022-12-29T01:09:13;4.05;;;3.10;;
9698;SDS011;10089;47.876;8.346;2022-12-29T01:11:57;6.57;;;3.08;;
9698;SDS011;10089;47.876;8.346;2022-12-29T01:14:23;3.88;;;2.70;;
9698;SDS011;10089;47.876;8.346;2022-12-29T01:16:49;4.05;;;2.83;;
9698;SDS011;10089;47.876;8.346;2022-12-29T01:19:16;5.53;;;3.42;;
9698;SDS011;10089;47.876;8.346;2022-12-29T01:21:42;4.10;;;2.83;;
9698;SDS011;10089;47.876;8.346;2022-12-29T01:24:08;4.82;;;2.60;;
9698;SDS011;10089;47.876;8.346;2022-12-29T01:26:34;4.68;;;2.45;;
9698;SDS011;10089;47.876;8.346;2022-12-29T01:29:00;2.85;;;2.50;;
9698;SDS011;10089;47.876;8.346;2022-12-29T01:31:25;4.57;;;3.00;;
9698;SDS011;10089;47.876;8.346;2022-12-29T01:33:51;3.95;;;3.00;;
9698;SDS011;10089;47.876;8.346;2022-12-29T01:36:17;4.00;;;2.85;;
9698;SDS011;10089;47.876;8.346;2022-12-29T01:38:44;3.05;;;2.53;;
9698;SDS011;10089;47.876;8.346;2022-12-29T01:41:11;2.95;;;2.35;;
9698;SDS011;10089;47.876;8.346;2022-12-29T01:43:45;3.22;;;2.35;;
9698;SDS011;10089;47.876;8.346;2022-12-29T01:48:57;3.95;;;2.22;;
9698;SDS011;10089;47.876;8.346;2022-12-29T01:51:33;2.42;;;1.85;;
9698;SDS011;10089;47.876;8.346;2022-12-29T01:54:09;7.00;;;2.05;;
9698;SDS011;10089;47.876;8.346;2022-12-29T01:56:38;4.82;;;2.55;;
9698;SDS011;10089;47.876;8.346;2022-12-29T01:59:05;2.92;;;2.17;;
9698;SDS011;10089;47.876;8.346;2022-12-29T02:01:36;3.50;;;2.20;;
9698;SDS011;10089;47.876;8.346;2022-12-29T02:04:02;4.35;;;2.05;;
9698;SDS011;10089;47.876;8.346;2022-12-29T02:06:29;3.15;;;2.08;;
9698;SDS011;10089;47.876;8.346;2022-12-29T02:09:02;2.72;;;2.13;;
9698;SDS011;10089;47.876;8.346;2022-12-29T02:11:28;6.70;;;2.47;;
9698;SDS011;10089;47.876;8.346;2022-12-29T02:13:55;2.58;;;2.20;;
9698;SDS011;10089;47.876;8.346;2022-12-29T02:16:34;3.17;;;2.17;;
9698;SDS011;10089;47.876;8.346;2022-12-29T02:22:02;1.98;;;1.83;;
9698;SDS011;10089;47.876;8.346;2022-12-29T02:37:44;3.28;;;2.60;;
9698;SDS011;10089;47.876;8.346;2022-12-29T02:42:51;2.85;;;2.35;;
9698;SDS011;10089;47.876;8.346;2022-12-29T02:45:58;3.95;;;2.70;;
9698;SDS011;10089;47.876;8.346;2022-12-29T02:51:07;3.47;;;2.43;;
9698;SDS011;10089;47.876;8.346;2022-12-29T02:53:40;5.53;;;2.42;;
9698;SDS011;10089;47.876;8.346;2022-12-29T02:56:24;5.10;;;2.23;;
9698;SDS011;10089;47.876;8.346;2022-12-29T02:58:50;5.50;;;2.60;;
9698;SDS011;10089;47.876;8.346;2022-12-29T03:15:39;4.00;;;1.95;;
9698;SDS011;10089;47.876;8.346;2022-12-29T03:18:28;3.38;;;2.20;;
9698;SDS011;10089;47.876;8.346;2022-12-29T03:21:03;4.45;;;2.33;;
9698;SDS011;10089;47.876;8.346;2022-12-29T03:23:35;3.58;;;2.90;;
9698;SDS011;10089;47.876;8.346;2022-12-29T03:26:04;3.80;;;2.60;;
9698;SDS011;10089;47.876;8.346;2022-12-29T03:28:37;3.73;;;2.70;;
9698;SDS011;10089;47.876;8.346;2022-12-29T03:31:08;5.95;;;2.92;;
9698;SDS011;10089;47.876;8.346;2022-12-29T03:33:35;3.45;;;2.55;;
9698;SDS011;10089;47.876;8.346;2022-12-29T03:36:04;3.10;;;2.40;;
9698;SDS011;10089;47.876;8.346;2022-12-29T03:38:44;4.15;;;2.58;;
9698;SDS011;10089;47.876;8.346;2022-12-29T03:41:23;3.23;;;2.20;;
9698;SDS011;10089;47.876;8.346;2022-12-29T03:43:52;3.80;;;2.60;;
9698;SDS011;10089;47.876;8.346;2022-12-29T03:46:18;3.17;;;2.43;;
9698;SDS011;10089;47.876;8.346;2022-12-29T03:48:43;2.92;;;2.30;;
9698;SDS011;10089;47.876;8.346;2022-12-29T03:51:09;3.72;;;2.67;;
9698;SDS011;10089;47.876;8.346;2022-12-29T03:53:35;4.90;;;2.42;;
9698;SDS011;10089;47.876;8.346;2022-12-29T03:56:01;3.75;;;1.92;;
9698;SDS011;10089;47.876;8.346;2022-12-29T03:58:26;4.15;;;1.98;;
9698;SDS011;10089;47.876;8.346;2022-12-29T04:00:52;5.70;;;2.97;;
9698;SDS011;10089;47.876;8.346;2022-12-29T04:03:18;5.90;;;2.63;;
9698;SDS011;10089;47.876;8.346;2022-12-29T04:05:44;3.22;;;2.33;;
9698;SDS011;10089;47.876;8.346;2022-12-29T04:08:09;2.33;;;1.98;;
9698;SDS011;10089;47.876;8.346;2022-12-29T04:10:35;6.35;;;2.47;;
9698;SDS011;10089;47.876;8.346;2022-12-29T04:13:01;4.00;;;2.22;;
9698;SDS011;10089;47.876;8.346;2022-12-29T04:15:26;3.08;;;2.10;;
9698;SDS011;10089;47.876;8.346;2022-12-29T04:17:52;3.30;;;1.77;;
9698;SDS011;10089;47.876;8.346;2022-12-29T04:20:18;3.80;;;2.08;;
9698;SDS011;10089;47.876;8.346;2022-12-29T04:23:06;5.00;;;2.13;;
9698;SDS011;10089;47.876;8.346;2022-12-29T04:25:32;2.17;;;1.80;;
9698;SDS011;10089;47.876;8.346;2022-12-29T04:27:58;2.83;;;2.00;;
9698;SDS011;10089;47.876;8.346;2022-12-29T04:30:25;3.40;;;1.85;;
9698;SDS011;10089;47.876;8.346;2022-12-29T04:32:51;3.10;;;1.80;;
9698;SDS011;10089;47.876;8.346;2022-12-29T04:35:17;2.78;;;2.10;;
9698;SDS011;10089;47.876;8.346;2022-12-29T04:37:42;2.47;;;2.10;;
9698;SDS011;10089;47.876;8.346;2022-12-29T04:40:08;1.90;;;1.60;;
9698;SDS011;10089;47.876;8.346;2022-12-29T04:42:34;3.30;;;1.70;;
9698;SDS011;10089;47.876;8.346;2022-12-29T04:45:00;3.00;;;1.80;;
9698;SDS011;10089;47.876;8.346;2022-12-29T04:47:26;2.20;;;1.67;;
9698;SDS011;10089;47.876;8.346;2022-12-29T04:49:52;3.53;;;1.92;;
9698;SDS011;10089;47.876;8.346;2022-12-29T04:52:18;3.53;;;1.92;;
9698;SDS011;10089;47.876;8.346;2022-12-29T04:54:43;6.07;;;1.95;;
9698;SDS011;10089;47.876;8.346;2022-12-29T04:57:10;5.97;;;2.08;;
9698;SDS011;10089;47.876;8.346;2022-12-29T04:59:39;3.40;;;1.65;;
9698;SDS011;10089;47.876;8.346;2022-12-29T05:02:04;7.75;;;1.98;;
9698;SDS011;10089;47.876;8.346;2022-12-29T05:04:30;5.45;;;1.70;;
9698;SDS011;10089;47.876;8.346;2022-12-29T05:06:56;5.15;;;2.15;;
9698;SDS011;10089;47.876;8.346;2022-12-29T05:09:24;3.65;;;1.90;;
9698;SDS011;10089;47.876;8.346;2022-12-29T05:11:49;3.33;;;2.10;;
9698;SDS011;10089;47.876;8.346;2022-12-29T05:14:15;3.22;;;1.75;;
9698;SDS011;10089;47.876;8.346;2022-12-29T05:16:41;5.22;;;1.85;;
9698;SDS011;10089;47.876;8.346;2022-12-29T05:19:06;3.45;;;1.83;;
9698;SDS011;10089;47.876;8.346;2022-12-29T05:21:32;4.07;;;1.90;;
9698;SDS011;10089;47.876;8.346;2022-12-29T05:23:58;2.05;;;1.80;;
9698;SDS011;10089;47.876;8.346;2022-12-29T05:26:25;5.43;;;2.05;;
9698;SDS011;10089;47.876;8.346;2022-12-29T05:28:52;2.20;;;1.90;;
9698;SDS011;10089;47.876;8.346;2022-12-29T05:31:18;2.95;;;1.90;;
9698;SDS011;10089;47.876;8.346;2022-12-29T05:33:43;3.38;;;1.85;;
9698;SDS011;10089;47.876;8.346;2022-12-29T05:36:09;7.00;;;1.60;;
9698;SDS011;10089;47.876;8.346;2022-12-29T05:38:35;5.57;;;1.98;;
9698;SDS011;10089;47.876;8.346;2022-12-29T05:41:01;4.75;;;1.85;;
9698;SDS011;10089;47.876;8.346;2022-12-29T05:43:27;2.30;;;1.67;;
9698;SDS011;10089;47.876;8.346;2022-12-29T05:45:53;2.85;;;1.55;;
9698;SDS011;10089;47.876;8.346;2022-12-29T05:48:20;2.83;;;1.50;;
9698;SDS011;10089;47.876;8.346;2022-12-29T05:50:49;6.22;;;1.60;;
9698;SDS011;10089;47.876;8.346;2022-12-29T05:53:16;1.90;;;1.65;;
9698;SDS011;10089;47.876;8.346;2022-12-29T05:55:43;5.40;;;1.85;;
9698;SDS011;10089;47.876;8.346;2022-12-29T05:58:11;2.25;;;1.45;;
9698;SDS011;10089;47.876;8.346;2022-12-29T06:00:36;4.40;;;1.95;;
9698;SDS011;10089;47.876;8.346;2022-12-29T06:03:03;2.88;;;1.80;;
9698;SDS011;10089;47.876;8.346;2022-12-29T06:05:29;2.15;;;1.70;;
9698;SDS011;10089;47.876;8.346;2022-12-29T06:07:55;2.28;;;1.52;;
9698;SDS011;10089;47.876;8.346;2022-12-29T06:10:21;3.33;;;1.42;;
9698;SDS011;10089;47.876;8.346;2022-12-29T06:12:48;3.65;;;1.80;;
9698;SDS011;10089;47.876;8.346;2022-12-29T06:15:15;5.03;;;1.65;;
9698;SDS011;10089;47.876;8.346;2022-12-29T06:17:40;2.60;;;1.90;;
9698;SDS011;10089;47.876;8.346;2022-12-29T06:20:07;3.60;;;1.58;;
9698;SDS011;10089;47.876;8.346;2022-12-29T06:22:33;1.90;;;1.55;;
9698;SDS011;10089;47.876;8.346;2022-12-29T06:24:59;2.85;;;1.50;;
9698;SDS011;10089;47.876;8.346;2022-12-29T06:27:25;4.72;;;2.00;;
9698;SDS011;10089;47.876;8.346;2022-12-29T06:29:50;5.43;;;1.80;;
9698;SDS011;10089;47.876;8.346;2022-12-29T06:32:16;2.20;;;1.60;;
9698;SDS011;10089;47.876;8.346;2022-12-29T06:34:42;6.82;;;1.85;;
9698;SDS011;10089;47.876;8.346;2022-12-29T06:37:09;5.95;;;1.77;;
9698;SDS011;10089;47.876;8.346;2022-12-29T06:39:36;5.10;;;1.85;;
9698;SDS011;10089;47.876;8.346;2022-12-29T06:42:02;3.40;;;1.67;;
9698;SDS011;10089;47.876;8.346;2022-12-29T06:44:28;2.22;;;1.67;;
9698;SDS011;10089;47.876;8.346;2022-12-29T06:46:53;2.58;;;1.55;;
9698;SDS011;10089;47.876;8.346;2022-12-29T06:49:19;2.25;;;1.35;;
9698;SDS011;10089;47.876;8.346;2022-12-29T06:51:45;3.17;;;1.88;;
9698;SDS011;10089;47.876;8.346;2022-12-29T06:54:11;1.58;;;1.40;;
9698;SDS011;10089;47.876;8.346;2022-12-29T06:56:37;1.95;;;1.65;;
9698;SDS011;10089;47.876;8.346;2022-12-29T06:59:21;2.30;;;1.58;;
9698;SDS011;10089;47.876;8.346;2022-12-29T07:01:47;2.97;;;1.83;;
9698;SDS011;10089;47.876;8.346;2022-12-29T07:04:13;3.25;;;1.58;;
9698;SDS011;10089;47.876;8.346;2022-12-29T07:06:39;5.07;;;1.80;;
9698;SDS011;10089;47.876;8.346;2022-12-29T07:09:05;4.03;;;1.70;;
9698;SDS011;10089;47.876;8.346;2022-12-29T07:11:32;3.33;;;1.92;;
9698;SDS011;10089;47.876;8.346;2022-12-29T07:13:58;2.72;;;1.90;;
9698;SDS011;10089;47.876;8.346;2022-12-29T07:16:24;2.03;;;1.65;;
9698;SDS011;10089;47.876;8.346;2022-12-29T07:18:50;2.72;;;2.28;;
9698;SDS011;10089;47.876;8.346;2022-12-29T07:21:16;2.45;;;1.90;;
9698;SDS011;10089;47.876;8.346;2022-12-29T07:23:43;3.65;;;1.92;;
9698;SDS011;10089;47.876;8.346;2022-12-29T07:26:09;2.65;;;1.55;;
9698;SDS011;10089;47.876;8.346;2022-12-29T07:28:37;3.03;;;2.40;;
9698;SDS011;10089;47.876;8.346;2022-12-29T07:31:03;6.63;;;2.22;;
9698;SDS011;10089;47.876;8.346;2022-12-29T07:33:30;3.63;;;2.42;;
9698;SDS011;10089;47.876;8.346;2022-12-29T07:35:58;4.43;;;2.50;;
9698;SDS011;10089;47.876;8.346;2022-12-29T07:38:24;3.38;;;2.13;;
9698;SDS011;10089;47.876;8.346;2022-12-29T07:40:50;2.72;;;1.70;;
9698;SDS011;10089;47.876;8.346;2022-12-29T07:43:19;3.95;;;1.80;;
9698;SDS011;10089;47.876;8.346;2022-12-29T07:45:44;4.95;;;1.60;;
9698;SDS011;10089;47.876;8.346;2022-12-29T07:48:10;4.60;;;2.10;;
9698;SDS011;10089;47.876;8.346;2022-12-29T07:50:36;2.92;;;1.85;;
9698;SDS011;10089;47.876;8.346;2022-12-29T07:53:02;4.75;;;1.92;;
9698;SDS011;10089;47.876;8.346;2022-12-29T07:55:28;2.47;;;2.00;;
9698;SDS011;10089;47.876;8.346;2022-12-29T07:57:54;4.13;;;2.00;;
9698;SDS011;10089;47.876;8.346;2022-12-29T08:00:27;1.88;;;1.55;;
9698;SDS011;10089;47.876;8.346;2022-12-29T08:02:53;5.72;;;2.60;;
9698;SDS011;10089;47.876;8.346;2022-12-29T08:05:18;2.45;;;2.00;;
9698;SDS011;10089;47.876;8.346;2022-12-29T08:07:45;3.78;;;2.40;;
9698;SDS011;10089;47.876;8.346;2022-12-29T08:10:11;6.60;;;1.95;;
9698;SDS011;10089;47.876;8.346;2022-12-29T08:12:37;14.07;;;4.13;;
9698;SDS011;10089;47.876;8.346;2022-12-29T08:15:04;2.40;;;1.90;;
9698;SDS011;10089;47.876;8.346;2022-12-29T08:17:31;3.28;;;2.17;;
9698;SDS011;10089;47.876;8.346;2022-12-29T08:19:57;4.45;;;2.15;;
9698;SDS011;10089;47.876;8.346;2022-12-29T08:22:23;2.55;;;1.85;;
9698;SDS011;10089;47.876;8.346;2022-12-29T08:24:49;4.97;;;2.03;;
9698;SDS011;10089;47.876;8.346;2022-12-29T08:27:16;1.92;;;1.70;;
9698;SDS011;10089;47.876;8.346;2022-12-29T08:29:42;3.22;;;2.00;;
9698;SDS011;10089;47.876;8.346;2022-12-29T08:32:08;3.47;;;2.10;;
9698;SDS011;10089;47.876;8.346;2022-12-29T08:34:34;2.88;;;1.73;;
9698;SDS011;10089;47.876;8.346;2022-12-29T08:37:00;2.22;;;1.88;;
9698;SDS011;10089;47.876;8.346;2022-12-29T08:39:26;3.63;;;1.88;;
9698;SDS011;10089;47.876;8.346;2022-12-29T08:41:52;3.03;;;1.77;;
9698;SDS011;10089;47.876;8.346;2022-12-29T08:44:18;2.47;;;1.77;;
9698;SDS011;10089;47.876;8.346;2022-12-29T08:46:43;2.10;;;1.90;;
9698;SDS011;10089;47.876;8.346;2022-12-29T08:49:09;2.35;;;1.80;;
9698;SDS011;10089;47.876;8.346;2022-12-29T08:51:35;3.42;;;2.13;;
9698;SDS011;10089;47.876;8.346;2022-12-29T08:54:00;4.00;;;3.00;;
9698;SDS011;10089;47.876;8.346;2022-12-29T08:56:26;3.25;;;2.65;;
9698;SDS011;10089;47.876;8.346;2022-12-29T08:58:53;3.78;;;2.63;;
9698;SDS011;10089;47.876;8.346;2022-12-29T09:01:19;3.97;;;2.45;;
9698;SDS011;10089;47.876;8.346;2022-12-29T09:03:45;10.30;;;6.05;;
9698;SDS011;10089;47.876;8.346;2022-12-29T09:06:11;27.20;;;14.68;;
9698;SDS011;10089;47.876;8.346;2022-12-29T09:08:40;44.22;;;24.80;;
9698;SDS011;10089;47.876;8.346;2022-12-29T09:13:38;20.92;;;11.65;;
9698;SDS011;10089;47.876;8.346;2022-12-29T09:16:04;120.68;;;54.17;;
9698;SDS011;10089;47.876;8.346;2022-12-29T09:18:30;66.03;;;33.38;;
9698;SDS011;10089;47.876;8.346;2022-12-29T09:21:00;6.40;;;5.28;;
9698;SDS011;10089;47.876;8.346;2022-12-29T09:23:27;14.77;;;11.75;;
9698;SDS011;10089;47.876;8.346;2022-12-29T09:25:53;10.40;;;7.70;;
9698;SDS011;10089;47.876;8.346;2022-12-29T09:28:20;11.93;;;9.15;;
9698;SDS011;10089;47.876;8.346;2022-12-29T09:30:46;13.65;;;10.80;;
9698;SDS011;10089;47.876;8.346;2022-12-29T09:33:12;11.48;;;8.88;;
9698;SDS011;10089;47.876;8.346;2022-12-29T09:35:44;6.93;;;4.63;;
9698;SDS011;10089;47.876;8.346;2022-12-29T09:38:15;4.90;;;3.80;;
9698;SDS011;10089;47.876;8.346;2022-12-29T09:40:43;7.90;;;4.45;;
9698;SDS011;10089;47.876;8.346;2022-12-29T09:48:40;5.03;;;3.08;;
9698;SDS011;10089;47.876;8.346;2022-12-29T09:51:11;9.40;;;5.32;;
9698;SDS011;10089;47.876;8.346;2022-12-29T09:53:42;3.75;;;3.25;;
9698;SDS011;10089;47.876;8.346;2022-12-29T09:56:16;3.85;;;2.80;;
9698;SDS011;10089;47.876;8.346;2022-12-29T09:58:45;6.60;;;4.60;;
9698;SDS011;10089;47.876;8.346;2022-12-29T10:03:52;4.80;;;2.95;;
9698;SDS011;10089;47.876;8.346;2022-12-29T10:06:32;6.40;;;2.45;;
9698;SDS011;10089;47.876;8.346;2022-12-29T10:11:44;4.82;;;2.80;;
9698;SDS011;10089;47.876;8.346;2022-12-29T10:23:11;4.95;;;2.63;;
9698;SDS011;10089;47.876;8.346;2022-12-29T10:25:49;4.88;;;2.50;;
9698;SDS011;10089;47.876;8.346;2022-12-29T10:28:22;6.28;;;2.33;;
9698;SDS011;10089;47.876;8.346;2022-12-29T10:30:53;2.53;;;1.90;;
9698;SDS011;10089;47.876;8.346;2022-12-29T10:33:24;3.03;;;2.50;;
9698;SDS011;10089;47.876;8.346;2022-12-29T10:35:57;7.82;;;2.30;;
9698;SDS011;10089;47.876;8.346;2022-12-29T10:41:24;4.72;;;2.53;;
9698;SDS011;10089;47.876;8.346;2022-12-29T10:43:54;2.55;;;2.13;;
9698;SDS011;10089;47.876;8.346;2022-12-29T11:27:59;5.45;;;2.47;;
9698;SDS011;10089;47.876;8.346;2022-12-29T11:30:28;5.85;;;2.67;;
9698;SDS011;10089;47.876;8.346;2022-12-29T11:32:57;4.88;;;2.35;;
9698;SDS011;10089;47.876;8.346;2022-12-29T11:35:36;1.85;;;1.75;;
9698;SDS011;10089;47.876;8.346;2022-12-29T11:38:06;3.95;;;2.10;;
9698;SDS011;10089;47.876;8.346;2022-12-29T11:40:51;4.13;;;2.28;;
9698;SDS011;10089;47.876;8.346;2022-12-29T11:45:58;4.03;;;1.60;;
9698;SDS011;10089;47.876;8.346;2022-12-29T11:48:26;3.53;;;1.80;;
9698;SDS011;10089;47.876;8.346;2022-12-29T11:50:57;2.05;;;1.48;;
9698;SDS011;10089;47.876;8.346;2022-12-29T11:53:28;1.60;;;1.38;;
9698;SDS011;10089;47.876;8.346;2022-12-29T11:56:15;1.88;;;1.60;;
9698;SDS011;10089;47.876;8.346;2022-12-29T11:58:45;3.53;;;1.83;;
9698;SDS011;10089;47.876;8.346;2022-12-29T12:01:19;4.20;;;1.88;;
9698;SDS011;10089;47.876;8.346;2022-12-29T12:06:34;1.60;;;1.48;;
9698;SDS011;10089;47.876;8.346;2022-12-29T12:09:25;1.70;;;1.33;;
9698;SDS011;10089;47.876;8.346;2022-12-29T12:12:35;2.03;;;1.40;;
9698;SDS011;10089;47.876;8.346;2022-12-29T12:15:08;1.60;;;1.35;;
9698;SDS011;10089;47.876;8.346;2022-12-29T12:18:02;3.75;;;1.17;;
9698;SDS011;10089;47.876;8.346;2022-12-29T12:20:43;4.25;;;1.75;;
9698;SDS011;10089;47.876;8.346;2022-12-29T12:23:22;3.60;;;1.50;;
9698;SDS011;10089;47.876;8.346;2022-12-29T12:26:10;4.20;;;2.30;;
9698;SDS011;10089;47.876;8.346;2022-12-29T16:48:58;2.33;;;1.75;;
9698;SDS011;10089;47.876;8.346;2022-12-29T16:53:57;3.50;;;1.80;;
9698;SDS011;10089;47.876;8.346;2022-12-29T16:56:28;3.72;;;1.90;;
9698;SDS011;10089;47.876;8.346;2022-12-29T18:27:52;1.50;;;1.40;;
9698;SDS011;10089;47.876;8.346;2022-12-29T18:30:18;2.85;;;1.40;;
9698;SDS011;10089;47.876;8.346;2022-12-29T18:32:43;1.67;;;1.45;;
9698;SDS011;10089;47.876;8.346;2022-12-29T18:35:14;4.13;;;1.40;;
9698;SDS011;10089;47.876;8.346;2022-12-29T18:37:42;3.40;;;1.55;;
9698;SDS011;10089;47.876;8.346;2022-12-29T18:40:10;2.72;;;1.55;;
9698;SDS011;10089;47.876;8.346;2022-12-29T18:42:37;2.17;;;1.60;;
9698;SDS011;10089;47.876;8.346;2022-12-29T18:45:11;3.38;;;1.73;;
9698;SDS011;10089;47.876;8.346;2022-12-29T18:47:43;1.98;;;1.58;;
9698;SDS011;10089;47.876;8.346;2022-12-29T18:50:09;4.05;;;2.22;;
9698;SDS011;10089;47.876;8.346;2022-12-29T18:52:36;3.15;;;2.38;;
9698;SDS011;10089;47.876;8.346;2022-12-29T18:55:01;1.80;;;1.60;;
9698;SDS011;10089;47.876;8.346;2022-12-29T18:57:28;4.07;;;3.15;;
9698;SDS011;10089;47.876;8.346;2022-12-29T18:59:55;3.85;;;1.70;;
9698;SDS011;10089;47.876;8.346;2022-12-29T19:02:21;3.28;;;1.38;;
9698;SDS011;10089;47.876;8.346;2022-12-29T19:04:53;1.90;;;1.50;;
9698;SDS011;10089;47.876;8.346;2022-12-29T19:07:20;4.72;;;1.50;;
9698;SDS011;10089;47.876;8.346;2022-12-29T19:09:46;4.60;;;2.75;;
9698;SDS011;10089;47.876;8.346;2022-12-29T19:12:13;3.90;;;2.47;;
9698;SDS011;10089;47.876;8.346;2022-12-29T19:14:41;3.28;;;2.17;;
9698;SDS011;10089;47.876;8.346;2022-12-29T19:17:10;7.63;;;2.55;;
9698;SDS011;10089;47.876;8.346;2022-12-29T19:19:37;4.45;;;1.80;;
9698;SDS011;10089;47.876;8.346;2022-12-29T19:22:04;3.25;;;1.92;;
9698;SDS011;10089;47.876;8.346;2022-12-29T19:24:29;2.95;;;2.10;;
9698;SDS011;10089;47.876;8.346;2022-12-29T19:26:55;3.67;;;2.25;;
9698;SDS011;10089;47.876;8.346;2022-12-29T19:29:21;2.60;;;2.20;;
9698;SDS011;10089;47.876;8.346;2022-12-29T19:31:47;3.05;;;2.03;;
9698;SDS011;10089;47.876;8.346;2022-12-29T19:34:13;4.03;;;2.70;;
9698;SDS011;10089;47.876;8.346;2022-12-29T19:36:40;3.35;;;2.60;;
9698;SDS011;10089;47.876;8.346;2022-12-29T19:39:07;3.13;;;2.60;;
9698;SDS011;10089;47.876;8.346;2022-12-29T19:41:32;4.05;;;2.40;;
9698;SDS011;10089;47.876;8.346;2022-12-29T19:43:58;4.90;;;2.00;;
9698;SDS011;10089;47.876;8.346;2022-12-29T19:46:25;5.03;;;2.30;;
9698;SDS011;10089;47.876;8.346;2022-12-29T19:48:51;2.97;;;2.40;;
9698;SDS011;10089;47.876;8.346;2022-12-29T19:51:18;3.03;;;2.40;;
9698;SDS011;10089;47.876;8.346;2022-12-29T19:53:45;3.92;;;2.95;;
9698;SDS011;10089;47.876;8.346;2022-12-29T19:56:11;2.55;;;1.90;;
9698;SDS011;10089;47.876;8.346;2022-12-29T19:58:38;1.70;;;1.55;;
9698;SDS011;10089;47.876;8.346;2022-12-29T20:01:04;2.40;;;1.70;;
9698;SDS011;10089;47.876;8.346;2022-12-29T20:03:44;2.00;;;1.65;;
9698;SDS011;10089;47.876;8.346;2022-12-29T20:06:10;2.13;;;1.92;;
9698;SDS011;10089;47.876;8.346;2022-12-29T20:08:37;3.47;;;2.20;;
9698;SDS011;10089;47.876;8.346;2022-12-29T20:11:14;5.43;;;2.10;;
9698;SDS011;10089;47.876;8.346;2022-12-29T20:13:41;1.95;;;1.73;;
9698;SDS011;10089;47.876;8.346;2022-12-29T20:16:11;2.05;;;1.58;;
9698;SDS011;10089;47.876;8.346;2022-12-29T20:18:42;4.45;;;1.88;;
9698;SDS011;10089;47.876;8.346;2022-12-29T20:21:15;2.95;;;1.58;;
9698;SDS011;10089;47.876;8.346;2022-12-29T20:23:43;3.58;;;1.30;;
9698;SDS011;10089;47.876;8.346;2022-12-29T20:26:20;1.50;;;1.33;;
9698;SDS011;10089;47.876;8.346;2022-12-29T20:28:48;2.15;;;1.30;;
9698;SDS011;10089;47.876;8.346;2022-12-29T20:31:26;1.05;;;1.05;;
9698;SDS011;10089;47.876;8.346;2022-12-29T20:33:57;1.63;;;1.17;;
9698;SDS011;10089;47.876;8.346;2022-12-29T20:36:24;1.50;;;1.13;;
9698;SDS011;10089;47.876;8.346;2022-12-29T20:38:53;1.17;;;1.08;;
9698;SDS011;10089;47.876;8.346;2022-12-29T20:41:20;1.15;;;1.02;;
9698;SDS011;10089;47.876;8.346;2022-12-29T20:43:47;0.85;;;0.82;;
9698;SDS011;10089;47.876;8.346;2022-12-29T20:46:13;4.30;;;1.20;;
9698;SDS011;10089;47.876;8.346;2022-12-29T20:48:39;1.10;;;1.00;;
9698;SDS011;10089;47.876;8.346;2022-12-29T20:51:06;0.73;;;0.73;;
9698;SDS011;10089;47.876;8.346;2022-12-29T20:53:32;0.82;;;0.82;;
9698;SDS011;10089;47.876;8.346;2022-12-29T20:56:03;1.80;;;1.00;;
9698;SDS011;10089;47.876;8.346;2022-12-29T20:58:32;1.00;;;0.90;;
9698;SDS011;10089;47.876;8.346;2022-12-29T21:00:59;0.80;;;0.80;;
9698;SDS011;10089;47.876;8.346;2022-12-29T21:03:28;1.17;;;0.73;;
9698;SDS011;10089;47.876;8.346;2022-12-29T21:05:54;1.13;;;0.80;;
9698;SDS011;10089;47.876;8.346;2022-12-29T21:08:21;0.95;;;0.95;;
9698;SDS011;10089;47.876;8.346;2022-12-29T21:10:48;0.90;;;0.88;;
9698;SDS011;10089;47.876;8.346;2022-12-29T21:13:15;0.73;;;0.73;;
9698;SDS011;10089;47.876;8.346;2022-12-29T21:15:41;1.85;;;0.70;;
9698;SDS011;10089;47.876;8.346;2022-12-29T21:18:08;0.60;;;0.60;;
9698;SDS011;10089;47.876;8.346;2022-12-29T21:20:34;2.17;;;0.85;;
9698;SDS011;10089;47.876;8.346;2022-12-29T21:23:00;0.95;;;0.60;;
9698;SDS011;10089;47.876;8.346;2022-12-29T21:25:27;0.60;;;0.60;;
9698;SDS011;10089;47.876;8.346;2022-12-29T21:28:04;0.80;;;0.80;;
9698;SDS011;10089;47.876;8.346;2022-12-29T21:30:32;0.73;;;0.73;;
9698;SDS011;10089;47.876;8.346;2022-12-29T21:32:58;1.13;;;0.88;;
9698;SDS011;10089;47.876;8.346;2022-12-29T21:35:24;1.20;;;0.82;;
9698;SDS011;10089;47.876;8.346;2022-12-29T21:37:50;0.52;;;0.52;;
9698;SDS011;10089;47.876;8.346;2022-12-29T21:40:16;1.15;;;0.75;;
9698;SDS011;10089;47.876;8.346;2022-12-29T21:42:42;0.70;;;0.70;;
9698;SDS011;10089;47.876;8.346;2022-12-29T21:45:08;0.70;;;0.70;;
9698;SDS011;10089;47.876;8.346;2022-12-29T21:47:53;0.80;;;0.80;;
9698;SDS011;10089;47.876;8.346;2022-12-29T21:50:41;0.95;;;0.60;;
9698;SDS011;10089;47.876;8.346;2022-12-29T21:53:31;0.80;;;0.80;;
9698;SDS011;10089;47.876;8.346;2022-12-29T21:56:08;0.70;;;0.70;;
9698;SDS011;10089;47.876;8.346;2022-12-29T21:58:41;1.05;;;0.98;;
9698;SDS011;10089;47.876;8.346;2022-12-29T22:01:28;1.15;;;1.08;;
9698;SDS011;10089;47.876;8.346;2022-12-29T22:04:14;2.00;;;1.33;;
9698;SDS011;10089;47.876;8.346;2022-12-29T22:07:01;1.50;;;0.80;;
9698;SDS011;10089;47.876;8.346;2022-12-29T22:09:46;0.80;;;0.80;;
9698;SDS011;10089;47.876;8.346;2022-12-29T22:12:30;1.05;;;0.95;;
9698;SDS011;10089;47.876;8.346;2022-12-29T22:15:14;1.00;;;0.85;;
9698;SDS011;10089;47.876;8.346;2022-12-29T22:17:44;0.90;;;0.90;;
9698;SDS011;10089;47.876;8.346;2022-12-29T22:20:11;0.80;;;0.80;;
9698;SDS011;10089;47.876;8.346;2022-12-29T22:22:37;1.00;;;0.90;;
9698;SDS011;10089;47.876;8.346;2022-12-29T22:25:02;0.85;;;0.65;;
9698;SDS011;10089;47.876;8.346;2022-12-29T22:27:29;0.50;;;0.50;;
9698;SDS011;10089;47.876;8.346;2022-12-29T22:29:54;0.65;;;0.65;;
9698;SDS011;10089;47.876;8.346;2022-12-29T22:32:20;0.60;;;0.50;;
9698;SDS011;10089;47.876;8.346;2022-12-29T22:34:46;0.50;;;0.50;;
9698;SDS011;10089;47.876;8.346;2022-12-29T22:37:13;0.50;;;0.50;;
9698;SDS011;10089;47.876;8.346;2022-12-29T22:39:39;0.60;;;0.60;;
9698;SDS011;10089;47.876;8.346;2022-12-29T22:42:05;0.45;;;0.45;;
9698;SDS011;10089;47.876;8.346;2022-12-29T22:44:31;0.60;;;0.60;;
9698;SDS011;10089;47.876;8.346;2022-12-29T22:46:57;0.80;;;0.80;;
9698;SDS011;10089;47.876;8.346;2022-12-29T22:49:23;0.65;;;0.65;;
9698;SDS011;10089;47.876;8.346;2022-12-29T22:51:49;0.70;;;0.70;;
9698;SDS011;10089;47.876;8.346;2022-12-29T22:54:15;0.47;;;0.47;;
9698;SDS011;10089;47.876;8.346;2022-12-29T22:56:42;0.52;;;0.52;;